Time;durP1;ratioP1;P1;durP2;ratioP2;P2;SDS_P1;SDS_P2;PMS_P1;PMS_P2;Temp;Humidity;BMP_temperature;BMP_pressure;BME280_temperature;BME280_humidity;BME280_pressure;Samples;Min_cycle;Max_cycle;Signal;HPM_P1;HPM_P2
2022/02/07 00:02:10;;;;;;;15.70;6.90;;;;;1.00;96713.20;;;;111089;1247;41227;-59
2022/02/07 00:04:41;;;;;;;15.50;6.90;;;;;1.00;96708.00;;;;111084;1248;41602;-61
2022/02/07 00:07:16;;;;;;;17.70;7.40;;;;;1.00;96708.80;;;;111113;1248;42074;-59
2022/02/07 00:09:46;;;;;;;16.10;7.00;;;;;1.08;96703.40;;;;111073;1246;41168;-57
2022/02/07 00:12:16;;;;;;;15.10;7.00;;;;;1.10;96699.60;;;;111054;1247;41678;-58
2022/02/07 00:14:46;;;;;;;15.00;6.60;;;;;1.10;96693.60;;;;111063;1246;41140;-58
2022/02/07 00:17:16;;;;;;;13.60;6.20;;;;;1.10;96687.20;;;;111064;1246;41143;-60
2022/02/07 00:19:46;;;;;;;16.00;6.70;;;;;1.10;96680.40;;;;111073;1248;41778;-60
2022/02/07 00:22:15;;;;;;;14.00;6.40;;;;;1.10;96674.60;;;;111003;1247;41725;-57
2022/02/07 00:24:45;;;;;;;13.90;6.10;;;;;1.10;96675.00;;;;111059;1247;41569;-59
2022/02/07 00:27:18;;;;;;;14.00;6.10;;;;;1.10;96673.40;;;;111109;1246;41176;-60
2022/02/07 00:29:48;;;;;;;14.00;6.20;;;;;1.12;96664.00;;;;111120;1247;41203;-58
2022/02/07 00:32:17;;;;;;;16.50;6.10;;;;;1.20;96654.40;;;;111070;1247;41162;-59
2022/02/07 00:34:47;;;;;;;12.00;5.50;;;;;1.20;96653.60;;;;110802;1249;41265;-59
2022/02/07 00:37:17;;;;;;;13.10;5.70;;;;;1.20;96649.60;;;;111038;1246;41149;-57
2022/02/07 00:39:59;;;;;;;17.90;6.40;;;;;1.20;96641.80;;;;110818;1249;41947;-60
2022/02/07 00:42:32;;;;;;;13.30;5.70;;;;;1.20;96637.00;;;;111084;1249;42061;-58
2022/02/07 00:45:13;;;;;;;15.50;6.60;;;;;1.20;96623.80;;;;111060;1247;41647;-61
2022/02/07 00:47:43;;;;;;;18.20;7.60;;;;;1.26;96613.80;;;;111081;1248;41613;-59
2022/02/07 00:50:13;;;;;;;16.40;7.10;;;;;1.28;96607.80;;;;111051;1248;41506;-58
2022/02/07 00:52:43;;;;;;;16.00;6.60;;;;;1.28;96601.60;;;;111087;1247;41155;-58
2022/02/07 00:55:13;;;;;;;12.00;6.40;;;;;1.30;96597.00;;;;111070;1247;42681;-58
2022/02/07 00:57:43;;;;;;;16.90;6.60;;;;;1.28;96585.00;;;;111100;1247;41168;-57
2022/02/07 01:00:15;;;;;;;12.70;5.60;;;;;1.22;96583.00;;;;110691;1249;41166;-57
2022/02/07 01:02:46;;;;;;;12.70;6.00;;;;;1.22;96585.40;;;;110870;1249;41610;-58
2022/02/07 01:05:18;;;;;;;11.60;5.30;;;;;1.26;96575.40;;;;110949;1246;41635;-58
2022/02/07 01:07:50;;;;;;;13.10;5.40;;;;;1.30;96570.40;;;;111048;1248;41896;-58
2022/02/07 01:10:33;;;;;;;10.90;4.80;;;;;1.30;96564.80;;;;111090;1246;41273;-58
2022/02/07 01:47:34;;;;;;;9.60;3.90;;;;;1.70;96516.20;;;;111080;1246;41174;-60
2022/02/07 01:55:18;;;;;;;9.00;4.00;;;;;1.90;96503.20;;;;110844;1248;41282;-61
2022/02/07 01:57:55;;;;;;;10.10;3.90;;;;;1.90;96495.00;;;;111065;1247;42128;-59
2022/02/07 02:00:35;;;;;;;9.10;3.60;;;;;1.90;96495.80;;;;111022;1247;41245;-61
2022/02/07 02:03:06;;;;;;;9.40;3.80;;;;;2.00;96486.80;;;;111057;1248;41587;-60
2022/02/07 02:05:43;;;;;;;11.50;4.10;;;;;2.00;96487.60;;;;111049;1249;41261;-60
2022/02/07 02:08:20;;;;;;;11.80;4.30;;;;;2.00;96483.20;;;;110874;1248;41261;-59
2022/02/07 02:10:56;;;;;;;10.70;4.40;;;;;2.00;96480.20;;;;111021;1248;41901;-60
2022/02/07 02:16:32;;;;;;;13.00;5.50;;;;;2.10;96466.60;;;;110826;1249;41277;-60
2022/02/07 02:47:25;;;;;;;11.80;4.80;;;;;2.20;96383.40;;;;110886;1249;41621;-60
2022/02/07 02:50:04;;;;;;;12.90;4.70;;;;;2.22;96378.00;;;;110954;1249;41258;-60
2022/02/07 02:52:35;;;;;;;11.10;4.20;;;;;2.30;96369.40;;;;110779;1248;41166;-60
2022/02/07 02:55:06;;;;;;;10.00;4.20;;;;;2.30;96357.80;;;;110902;1249;41827;-60
2022/02/07 02:57:36;;;;;;;12.70;4.50;;;;;2.30;96358.60;;;;111062;1248;41167;-61
2022/02/07 03:00:07;;;;;;;10.90;4.20;;;;;2.40;96350.00;;;;110991;1249;41142;-59
2022/02/07 03:02:38;;;;;;;9.60;4.10;;;;;2.40;96350.00;;;;110771;1250;41268;-58
2022/02/07 03:05:09;;;;;;;9.40;4.00;;;;;2.40;96333.00;;;;110850;1249;42748;-58
2022/02/07 03:07:39;;;;;;;10.60;4.70;;;;;2.40;96334.80;;;;111002;1249;42375;-58
2022/02/07 03:10:10;;;;;;;13.30;3.90;;;;;2.44;96335.00;;;;111092;1247;41258;-58
2022/02/07 03:12:57;;;;;;;12.70;4.20;;;;;2.50;96332.40;;;;110898;1249;41966;-59
2022/02/07 03:18:18;;;;;;;10.40;3.50;;;;;2.60;96333.20;;;;110941;1249;42061;-59
2022/02/07 03:20:49;;;;;;;10.30;3.60;;;;;2.70;96324.00;;;;110745;1249;41685;-59
2022/02/07 03:23:19;;;;;;;8.30;3.70;;;;;2.80;96323.80;;;;110860;1249;41896;-59
2022/02/07 03:25:50;;;;;;;8.70;3.60;;;;;2.80;96325.80;;;;110781;1250;41444;-59
2022/02/07 03:28:23;;;;;;;11.20;4.00;;;;;2.90;96315.60;;;;111005;1248;42667;-59
2022/02/07 03:30:55;;;;;;;8.20;3.40;;;;;3.00;96315.00;;;;110901;1249;41503;-59
2022/02/07 03:33:28;;;;;;;8.10;3.50;;;;;3.00;96310.20;;;;110903;1249;41189;-58
2022/02/07 03:35:57;;;;;;;9.30;3.50;;;;;3.10;96302.40;;;;110816;1248;41775;-58
2022/02/07 03:38:28;;;;;;;12.30;4.10;;;;;3.20;96294.80;;;;110940;1249;41261;-58
2022/02/07 03:41:02;;;;;;;8.40;3.40;;;;;3.20;96289.60;;;;110879;1249;41258;-60
2022/02/07 03:43:33;;;;;;;9.00;3.40;;;;;3.28;96283.00;;;;110831;1249;41279;-59
2022/02/07 03:46:04;;;;;;;;;;;;;3.30;96277.40;;;;110818;1249;41268;-59
2022/02/07 03:48:34;;;;;;;9.70;3.60;;;;;3.30;96278.00;;;;110746;1249;41831;-59
2022/02/07 03:51:05;;;;;;;8.40;3.50;;;;;3.38;96281.00;;;;110899;1249;41162;-59
2022/02/07 03:53:37;;;;;;;8.60;3.40;;;;;3.40;96280.80;;;;110608;1249;42515;-60
2022/02/07 03:56:07;;;;;;;;;;;;;3.40;96282.40;;;;110975;1249;41960;-60
2022/02/07 03:58:40;;;;;;;8.60;3.30;;;;;3.50;96273.20;;;;111063;1247;41258;-59
2022/02/07 04:01:12;;;;;;;9.60;3.60;;;;;3.50;96276.00;;;;111021;1248;42060;-60
2022/02/07 04:03:48;;;;;;;10.00;3.70;;;;;3.60;96279.80;;;;111040;1246;41613;-60
2022/02/07 04:06:21;;;;;;;11.10;4.10;;;;;3.66;96281.60;;;;110826;1249;41360;-59
2022/02/07 04:09:03;;;;;;;10.50;4.20;;;;;3.60;96269.00;;;;111052;1248;41766;-61
2022/02/07 04:11:59;;;;;;;9.70;4.20;;;;;3.70;96257.00;;;;110978;1249;41591;-60
2022/02/07 04:14:31;;;;;;;8.70;3.60;;;;;3.70;96248.80;;;;110831;1251;42161;-60
2022/02/07 04:17:25;;;;;;;9.90;4.00;;;;;3.70;96247.20;;;;110743;1250;41986;-60
2022/02/07 04:20:00;;;;;;;8.70;3.60;;;;;3.70;96242.20;;;;110777;1249;41869;-59
2022/02/07 04:22:42;;;;;;;21.90;9.20;;;;;3.80;96256.00;;;;110794;1249;41273;-60
2022/02/07 04:25:30;;;;;;;9.00;4.10;;;;;3.84;96260.20;;;;110991;1248;41397;-60
2022/02/07 04:28:10;;;;;;;9.00;3.70;;;;;4.10;96249.60;;;;110960;1247;41626;-60
2022/02/07 04:30:40;;;;;;;10.40;4.10;;;;;4.30;96245.80;;;;111011;1249;41440;-58
2022/02/07 04:33:10;;;;;;;11.40;4.40;;;;;4.48;96245.20;;;;111013;1249;41139;-58
2022/02/07 04:35:40;;;;;;;12.20;4.90;;;;;4.50;96241.00;;;;110768;1249;41161;-58
2022/02/07 04:38:10;;;;;;;10.60;4.40;;;;;4.50;96238.40;;;;110814;1249;41966;-58
2022/02/07 04:40:42;;;;;;;8.60;3.70;;;;;4.50;96239.40;;;;110786;1249;41406;-58
2022/02/07 04:43:15;;;;;;;10.10;3.90;;;;;4.50;96237.40;;;;111034;1247;41405;-58
2022/02/07 04:45:55;;;;;;;10.60;3.80;;;;;4.50;96231.40;;;;111016;1249;42307;-58
2022/02/07 04:56:58;;;;;;;9.30;4.00;;;;;4.70;96215.60;;;;110744;1251;42378;-58
2022/02/07 04:59:09;;;;;;;8.40;3.60;;;;;4.70;96216.40;;;;110763;1251;41274;-58
2022/02/07 05:02:07;;;;;;;10.30;3.90;;;;;4.70;96213.40;;;;110756;1249;42615;-58
2022/02/07 05:04:39;;;;;;;10.10;4.10;;;;;4.80;96211.40;;;;111061;1248;41149;-58
2022/02/07 05:15:35;;;;;;;9.00;3.50;;;;;5.00;96212.20;;;;110786;1249;42315;-60
2022/02/07 05:18:07;;;;;;;8.60;3.30;;;;;5.10;96214.00;;;;110990;1248;41253;-58
2022/02/07 05:21:05;;;;;;;8.50;3.50;;;;;5.10;96217.60;;;;110474;1248;41158;-58
2022/02/07 05:23:48;;;;;;;10.90;3.70;;;;;5.10;96191.60;;;;111086;1247;41265;-58
2022/02/07 05:26:40;;;;;;;9.20;3.30;;;;;5.20;96171.00;;;;110693;1248;41254;-58
2022/02/07 05:29:36;;;;;;;10.80;4.00;;;;;5.20;96180.00;;;;110890;1248;41191;-59
2022/02/07 05:32:24;;;;;;;9.30;3.20;;;;;5.18;96193.80;;;;111024;1248;41591;-58
2022/02/07 05:35:20;;;;;;;9.00;3.90;;;;;5.20;96196.80;;;;110751;1247;41164;-59
2022/02/07 05:38:02;;;;;;;9.10;3.80;;;;;5.20;96198.00;;;;110880;1249;42018;-57
2022/02/07 05:41:01;;;;;;;8.80;3.90;;;;;5.22;96189.60;;;;110903;1249;41161;-59
2022/02/07 05:43:38;;;;;;;10.20;4.00;;;;;5.30;96188.20;;;;111027;1247;41642;-56
2022/02/07 05:46:21;;;;;;;11.60;4.10;;;;;5.30;96179.40;;;;111073;1248;41205;-58
2022/02/07 05:49:11;;;;;;;10.60;4.30;;;;;5.30;96175.40;;;;110733;1247;41744;-58
2022/02/07 05:51:54;;;;;;;11.00;4.50;;;;;5.30;96179.20;;;;110978;1249;41633;-58
2022/02/07 05:54:38;;;;;;;9.70;4.10;;;;;5.30;96174.20;;;;111060;1248;41258;-58
2022/02/07 05:57:26;;;;;;;25.10;11.30;;;;;5.36;96168.40;;;;110897;1250;41112;-59
2022/02/07 06:00:07;;;;;;;15.40;7.80;;;;;5.40;96163.60;;;;111012;1247;42066;-58
2022/02/07 06:02:45;;;;;;;11.10;5.00;;;;;5.32;96155.00;;;;110851;1249;41132;-60
2022/02/07 06:05:38;;;;;;;10.00;4.00;;;;;5.36;96166.20;;;;111121;1247;41251;-58
2022/02/07 06:08:17;;;;;;;10.00;4.20;;;;;5.30;96170.00;;;;111015;1248;41254;-58
2022/02/07 06:10:47;;;;;;;10.80;4.30;;;;;5.40;96172.00;;;;111046;1248;41149;-58
2022/02/07 06:13:18;;;;;;;9.40;4.20;;;;;5.50;96180.00;;;;110787;1249;41143;-60
2022/02/07 06:16:04;;;;;;;10.40;3.80;;;;;5.52;96180.60;;;;111011;1248;41387;-58
2022/02/07 06:18:34;;;;;;;10.70;4.50;;;;;5.60;96183.40;;;;110982;1250;41314;-59
2022/02/07 06:21:05;;;;;;;9.20;4.10;;;;;5.60;96186.80;;;;110953;1248;41457;-58
2022/02/07 06:23:39;;;;;;;11.90;4.20;;;;;5.70;96183.40;;;;111062;1248;41506;-59
2022/02/07 06:26:16;;;;;;;8.60;4.00;;;;;5.70;96162.20;;;;111056;1248;41133;-59
2022/02/07 06:28:48;;;;;;;10.80;4.20;;;;;5.80;96162.00;;;;111020;1247;41153;-59
2022/02/07 06:31:17;;;;;;;11.40;4.70;;;;;5.80;96168.40;;;;111033;1249;41666;-59
2022/02/07 06:33:47;;;;;;;10.80;4.50;;;;;5.70;96172.00;;;;111111;1247;41616;-59
2022/02/07 06:36:17;;;;;;;9.10;3.80;;;;;5.80;96158.80;;;;111074;1248;42379;-59
2022/02/07 06:38:48;;;;;;;10.70;4.50;;;;;5.92;96158.00;;;;111061;1248;41246;-58
2022/02/07 06:41:17;;;;;;;;;;;;;6.00;96161.00;;;;111087;1249;41257;-58
2022/02/07 06:43:47;;;;;;;10.60;4.20;;;;;6.10;96164.60;;;;111111;1248;41136;-59
2022/02/07 06:46:16;;;;;;;7.40;3.20;;;;;6.10;96163.60;;;;111028;1250;41152;-58
2022/02/07 06:48:46;;;;;;;8.50;3.80;;;;;6.12;96155.60;;;;110999;1247;41708;-58
2022/02/07 06:51:18;;;;;;;11.30;4.60;;;;;6.10;96145.60;;;;111030;1248;41252;-59
2022/02/07 06:53:51;;;;;;;9.70;4.20;;;;;6.20;96141.00;;;;110986;1248;41152;-59
2022/02/07 06:56:25;;;;;;;10.90;4.50;;;;;6.20;96134.80;;;;111001;1250;41303;-58
2022/02/07 06:58:56;;;;;;;9.20;3.90;;;;;6.20;96128.00;;;;111003;1248;41879;-59
2022/02/07 07:01:29;;;;;;;8.40;3.80;;;;;6.20;96136.60;;;;110991;1248;41141;-58
2022/02/07 07:03:59;;;;;;;11.20;4.20;;;;;6.20;96139.00;;;;110993;1248;41146;-58
2022/02/07 07:06:31;;;;;;;10.40;3.80;;;;;6.22;96138.80;;;;110999;1249;41997;-58
2022/02/07 07:09:03;;;;;;;8.30;3.80;;;;;6.22;96135.00;;;;111027;1250;41141;-59
2022/02/07 07:11:34;;;;;;;10.10;3.90;;;;;6.22;96127.20;;;;111081;1248;41158;-59
2022/02/07 07:14:29;;;;;;;;;;;;;6.20;96118.20;;;;111073;1247;41155;-59
2022/02/07 07:17:03;;;;;;;10.90;3.80;;;;;6.18;96106.60;;;;111055;1247;41233;-59
2022/02/07 07:19:44;;;;;;;;;;;;;6.28;96109.20;;;;110999;1249;42172;-57
2022/02/07 07:22:14;;;;;;;10.70;3.70;;;;;6.20;96113.80;;;;110986;1248;41596;-58
2022/02/07 07:24:46;;;;;;;8.60;3.70;;;;;6.20;96113.80;;;;111012;1247;42303;-59
2022/02/07 07:27:25;;;;;;;9.00;3.80;;;;;6.20;96109.80;;;;110957;1249;41614;-58
2022/02/07 07:29:55;;;;;;;8.10;3.40;;;;;6.30;96084.60;;;;110761;1249;41623;-60
2022/02/07 07:32:29;;;;;;;9.00;4.00;;;;;6.30;96083.40;;;;110768;1249;42527;-59
2022/02/07 07:35:01;;;;;;;9.10;3.80;;;;;6.30;96089.40;;;;110873;1250;41158;-58
2022/02/07 07:37:31;;;;;;;10.00;4.00;;;;;6.30;96101.20;;;;111035;1247;41142;-62
2022/02/07 07:40:00;;;;;;;8.90;3.60;;;;;6.30;96109.60;;;;111029;1249;41275;-59
2022/02/07 07:42:31;;;;;;;10.70;3.60;;;;;6.32;96109.40;;;;111018;1248;41145;-58
2022/02/07 07:45:14;;;;;;;8.50;3.50;;;;;6.40;96116.00;;;;110985;1247;41922;-59
2022/02/07 07:48:23;;;;;;;9.60;3.70;;;;;6.40;96113.60;;;;110911;1248;41131;-59
2022/02/07 07:51:07;;;;;;;9.00;3.40;;;;;6.40;96111.80;;;;111106;1248;41263;-58
2022/02/07 08:02:47;;;;;;;9.00;3.50;;;;;6.44;96132.60;;;;111032;1249;41260;-60
2022/02/07 08:05:41;;;;;;;7.70;3.30;;;;;6.52;96135.20;;;;110985;1247;41155;-58
2022/02/07 08:08:24;;;;;;;7.70;3.40;;;;;6.42;96132.40;;;;110907;1249;41762;-57
2022/02/07 08:11:02;;;;;;;10.30;4.20;;;;;6.50;96122.20;;;;110922;1250;41140;-58
2022/02/07 08:13:36;;;;;;;9.40;3.90;;;;;6.48;96119.00;;;;110917;1247;41443;-62
2022/02/07 08:16:10;;;;;;;8.70;3.90;;;;;6.50;96101.40;;;;110959;1248;41964;-58
2022/02/07 08:18:39;;;;;;;9.60;4.00;;;;;6.50;96098.80;;;;110999;1249;42494;-58
2022/02/07 08:21:09;;;;;;;9.40;3.80;;;;;6.50;96083.60;;;;110981;1246;41892;-62
2022/02/07 08:23:39;;;;;;;8.80;3.40;;;;;6.50;96077.40;;;;110894;1249;42439;-57
2022/02/07 08:26:08;;;;;;;8.60;3.70;;;;;6.60;96071.80;;;;110999;1249;41160;-59
2022/02/07 08:28:47;;;;;;;10.80;3.80;;;;;6.60;96072.80;;;;111009;1248;41824;-58
2022/02/07 08:31:17;;;;;;;8.60;3.90;;;;;6.66;96082.80;;;;111043;1249;42132;-58
2022/02/07 08:33:47;;;;;;;11.80;4.00;;;;;6.68;96078.20;;;;110967;1249;41924;-58
2022/02/07 08:36:16;;;;;;;9.30;3.50;;;;;6.64;96081.00;;;;110998;1247;42758;-58
2022/02/07 08:38:45;;;;;;;9.60;3.90;;;;;6.70;96077.80;;;;110954;1249;41152;-59
2022/02/07 08:41:14;;;;;;;8.30;3.40;;;;;6.80;96073.20;;;;110960;1249;41489;-58
2022/02/07 08:43:43;;;;;;;9.70;3.30;;;;;6.80;96084.40;;;;111083;1247;41690;-58
2022/02/07 08:46:13;;;;;;;7.80;3.50;;;;;6.84;96083.40;;;;111058;1247;41158;-58
2022/02/07 08:48:42;;;;;;;9.20;3.70;;;;;6.90;96072.60;;;;111068;1247;41268;-58
2022/02/07 08:51:11;;;;;;;10.10;3.40;;;;;6.92;96067.20;;;;110923;1249;41151;-58
2022/02/07 08:53:43;;;;;;;8.40;3.70;;;;;7.00;96064.00;;;;110892;1249;41591;-59
2022/02/07 08:56:16;;;;;;;10.80;3.10;;;;;7.00;96067.20;;;;111004;1249;42381;-58
2022/02/07 08:58:47;;;;;;;8.20;3.30;;;;;7.00;96067.60;;;;110922;1249;42345;-59
2022/02/07 09:01:28;;;;;;;10.40;4.20;;;;;7.10;96070.60;;;;111080;1248;41121;-58
2022/02/07 09:04:39;;;;;;;11.00;4.20;;;;;7.10;96070.00;;;;110888;1247;275300;-59
2022/02/07 09:07:11;;;;;;;10.60;5.10;;;;;7.10;96065.60;;;;111067;1247;41150;-58
2022/02/07 09:09:43;;;;;;;8.10;3.60;;;;;7.10;96062.00;;;;111011;1249;41301;-58
2022/02/07 09:12:13;;;;;;;7.90;3.20;;;;;7.10;96059.40;;;;110940;1249;41624;-59
2022/02/07 09:14:50;;;;;;;8.60;3.50;;;;;7.18;96055.40;;;;111065;1248;41290;-61
2022/02/07 09:17:19;;;;;;;6.60;2.80;;;;;7.20;96055.40;;;;111059;1247;41221;-59
2022/02/07 09:19:52;;;;;;;9.10;4.00;;;;;7.20;96046.40;;;;111030;1249;41643;-57
2022/02/07 09:22:21;;;;;;;9.40;3.30;;;;;7.20;96044.00;;;;111047;1248;41238;-58
2022/02/07 09:24:51;;;;;;;10.50;4.30;;;;;7.12;96033.60;;;;110927;1248;41147;-59
2022/02/07 09:27:20;;;;;;;7.30;3.10;;;;;7.20;96027.40;;;;111025;1247;41549;-59
2022/02/07 09:29:49;;;;;;;8.20;3.40;;;;;7.20;96032.80;;;;111130;1248;42322;-60
2022/02/07 09:32:21;;;;;;;9.90;3.80;;;;;7.20;96028.00;;;;110841;1247;41179;-58
2022/02/07 09:34:50;;;;;;;10.10;3.80;;;;;7.24;96029.40;;;;111004;1249;41239;-60
2022/02/07 09:37:19;;;;;;;8.50;3.90;;;;;7.30;96022.80;;;;111023;1248;41273;-58
2022/02/07 09:39:48;;;;;;;9.10;3.90;;;;;7.30;96020.60;;;;111013;1249;41157;-58
2022/02/07 09:42:18;;;;;;;8.10;3.30;;;;;7.30;96016.60;;;;111065;1248;41795;-58
2022/02/07 09:44:54;;;;;;;8.40;3.70;;;;;7.30;96012.80;;;;111061;1248;41249;-59
2022/02/07 09:47:24;;;;;;;7.20;3.20;;;;;7.40;96008.40;;;;111028;1249;41595;-58
2022/02/07 09:49:53;;;;;;;8.20;3.30;;;;;7.40;96004.60;;;;111002;1249;41600;-59
2022/02/07 09:52:22;;;;;;;7.20;3.10;;;;;7.40;96006.80;;;;110744;1250;41527;-59
2022/02/07 09:54:51;;;;;;;7.20;3.20;;;;;7.40;96000.80;;;;111066;1249;41465;-59
2022/02/07 09:57:21;;;;;;;15.80;6.70;;;;;7.40;95997.60;;;;111044;1247;41262;-61
2022/02/07 09:59:52;;;;;;;9.10;4.40;;;;;7.46;95988.60;;;;110870;1251;41385;-60
2022/02/07 10:02:44;;;;;;;7.80;3.50;;;;;7.50;95992.80;;;;110993;1249;42155;-59
2022/02/07 10:05:24;;;;;;;7.80;3.60;;;;;7.50;95984.60;;;;110866;1249;41174;-57
2022/02/07 10:08:06;;;;;;;10.00;5.10;;;;;7.54;95976.60;;;;110988;1249;41149;-59
2022/02/07 10:10:51;;;;;;;8.40;4.00;;;;;7.60;95975.20;;;;111051;1248;41148;-58
2022/02/07 10:13:42;;;;;;;10.40;4.70;;;;;7.60;95966.60;;;;111090;1248;41157;-59
2022/02/07 10:19:19;;;;;;;10.80;4.30;;;;;7.50;95958.80;;;;111041;1249;41157;-59
2022/02/07 10:41:55;;;;;;;8.70;3.70;;;;;7.60;95934.60;;;;111017;1248;41614;-57
2022/02/07 10:44:43;;;;;;;9.30;3.90;;;;;7.60;95931.20;;;;111071;1247;41184;-61
2022/02/07 10:50:10;;;;;;;9.20;3.90;;;;;7.60;95934.80;;;;111084;1248;41171;-59
2022/02/07 10:52:51;;;;;;;9.00;3.70;;;;;7.60;95929.80;;;;111067;1248;41362;-59
2022/02/07 10:55:42;;;;;;;9.40;4.20;;;;;7.60;95937.60;;;;110952;1250;41141;-58
2022/02/07 10:58:12;;;;;;;;;;;;;7.60;95932.20;;;;111084;1249;41183;-58
2022/02/07 11:00:53;;;;;;;7.80;3.60;;;;;7.70;95924.60;;;;111038;1248;41155;-60
2022/02/07 11:03:25;;;;;;;8.60;3.70;;;;;7.70;95923.60;;;;110982;1248;41261;-59
2022/02/07 11:06:00;;;;;;;9.10;4.20;;;;;7.80;95919.80;;;;111081;1248;41607;-59
2022/02/07 11:08:35;;;;;;;8.50;4.40;;;;;7.80;95915.20;;;;111028;1249;41143;-59
2022/02/07 11:11:18;;;;;;;9.80;4.50;;;;;7.82;95912.80;;;;111125;1248;41139;-59
2022/02/07 11:19:34;;;;;;;17.00;7.90;;;;;7.90;95907.00;;;;111053;1248;41150;-59
2022/02/07 11:25:12;;;;;;;10.30;4.70;;;;;7.80;95902.40;;;;111070;1249;41156;-58
2022/02/07 11:30:47;;;;;;;9.60;4.70;;;;;7.50;95894.80;;;;111032;1248;42104;-59
2022/02/07 11:33:43;;;;;;;9.90;4.10;;;;;7.36;95894.20;;;;111009;1248;41274;-60
2022/02/07 11:36:27;;;;;;;9.50;4.20;;;;;7.28;95890.60;;;;111037;1249;42428;-58
2022/02/07 11:39:06;;;;;;;8.30;3.70;;;;;7.20;95881.40;;;;110680;1250;41146;-58
2022/02/07 11:42:04;;;;;;;;;;;;;7.20;95879.80;;;;111018;1248;41270;-58
2022/02/07 11:44:39;;;;;;;8.90;4.00;;;;;7.20;95881.00;;;;110964;1249;41269;-57
2022/02/07 11:47:15;;;;;;;8.80;3.70;;;;;7.18;95882.00;;;;111085;1248;41124;-60
2022/02/07 11:49:49;;;;;;;8.60;3.60;;;;;7.30;95875.60;;;;111069;1248;41940;-61
2022/02/07 11:52:41;;;;;;;8.60;3.90;;;;;7.40;95875.60;;;;111079;1248;41579;-58
2022/02/07 11:55:14;;;;;;;8.10;3.50;;;;;7.50;95870.80;;;;111041;1248;41262;-60
2022/02/07 11:57:52;;;;;;;9.00;3.70;;;;;7.60;95866.00;;;;111029;1248;42610;-58
2022/02/07 12:00:24;;;;;;;7.80;3.30;;;;;7.62;95862.40;;;;110997;1249;41252;-58
2022/02/07 12:03:00;;;;;;;7.30;3.10;;;;;7.60;95855.80;;;;110913;1249;41143;-58
2022/02/07 12:05:31;;;;;;;8.00;3.30;;;;;7.40;95858.40;;;;111115;1248;41943;-58
2022/02/07 12:08:13;;;;;;;8.30;3.40;;;;;7.60;95854.20;;;;111049;1246;41192;-59
2022/02/07 12:11:06;;;;;;;8.00;3.30;;;;;7.66;95856.00;;;;111080;1248;41274;-58
2022/02/07 12:13:39;;;;;;;6.20;2.70;;;;;7.70;95852.60;;;;110847;1249;41909;-58
2022/02/07 12:16:20;;;;;;;6.40;2.90;;;;;7.78;95851.80;;;;111064;1248;41170;-59
2022/02/07 12:18:58;;;;;;;8.20;3.10;;;;;7.80;95849.60;;;;111045;1248;42086;-59
2022/02/07 12:21:29;;;;;;;6.70;2.60;;;;;7.72;95851.20;;;;110951;1249;41255;-58
2022/02/07 12:24:03;;;;;;;6.10;2.70;;;;;7.84;95851.60;;;;111003;1249;41179;-58
2022/02/07 12:26:37;;;;;;;5.50;2.50;;;;;7.82;95850.20;;;;111053;1248;41400;-59
2022/02/07 12:29:14;;;;;;;6.70;2.70;;;;;7.86;95851.20;;;;111042;1248;41319;-61
2022/02/07 12:31:43;;;;;;;5.70;2.50;;;;;7.84;95843.60;;;;111029;1248;42382;-60
2022/02/07 12:34:15;;;;;;;5.60;2.20;;;;;7.80;95846.40;;;;111041;1247;42434;-60
2022/02/07 12:36:44;;;;;;;4.60;2.10;;;;;7.90;95846.00;;;;110945;1249;41264;-60
2022/02/07 12:39:15;;;;;;;5.40;2.30;;;;;8.00;95844.80;;;;111050;1247;41546;-58
2022/02/07 12:41:46;;;;;;;5.90;2.40;;;;;7.90;95849.40;;;;111042;1248;41441;-58
2022/02/07 12:44:22;;;;;;;5.80;2.40;;;;;8.00;95846.40;;;;111078;1248;41617;-58
2022/02/07 12:46:53;;;;;;;5.50;2.40;;;;;8.00;95852.20;;;;111020;1250;41494;-60
2022/02/07 12:49:24;;;;;;;7.90;2.30;;;;;8.00;95854.60;;;;111025;1248;41865;-58
2022/02/07 12:51:56;;;;;;;5.90;2.30;;;;;7.90;95860.80;;;;111014;1248;41513;-60
2022/02/07 12:54:26;;;;;;;5.60;2.50;;;;;7.88;95864.20;;;;111050;1248;41140;-59
2022/02/07 12:57:01;;;;;;;6.00;2.60;;;;;7.74;95870.40;;;;111068;1248;41140;-59
2022/02/07 12:59:32;;;;;;;7.30;2.90;;;;;7.70;95867.60;;;;111022;1247;41538;-59
2022/02/07 13:02:00;;;;;;;7.20;2.90;;;;;7.70;95864.00;;;;111046;1248;41169;-60
2022/02/07 13:04:32;;;;;;;7.80;2.90;;;;;7.60;95866.80;;;;111012;1248;41143;-58
2022/02/07 13:07:05;;;;;;;7.20;2.70;;;;;7.60;95863.20;;;;110820;1250;41279;-58
2022/02/07 13:09:50;;;;;;;8.00;2.90;;;;;7.68;95859.00;;;;110992;1248;41274;-59
2022/02/07 13:12:35;;;;;;;6.00;2.60;;;;;7.62;95862.80;;;;111020;1249;41160;-60
2022/02/07 13:15:13;;;;;;;7.10;2.90;;;;;7.60;95874.60;;;;111131;1248;41130;-60
2022/02/07 13:17:42;;;;;;;6.60;2.90;;;;;7.50;95875.40;;;;111053;1248;41201;-60
2022/02/07 13:20:12;;;;;;;7.50;3.00;;;;;7.50;95877.60;;;;110950;1249;41304;-60
2022/02/07 13:22:41;;;;;;;9.70;2.90;;;;;7.40;95884.20;;;;111043;1248;42182;-59
2022/02/07 13:25:11;;;;;;;5.70;2.50;;;;;7.36;95886.80;;;;111092;1247;41145;-57
2022/02/07 13:27:40;;;;;;;6.00;2.60;;;;;7.40;95890.80;;;;110980;1248;41201;-60
2022/02/07 13:30:13;;;;;;;7.00;2.60;;;;;7.36;95889.40;;;;111026;1249;41901;-59
2022/02/07 13:32:43;;;;;;;6.40;2.50;;;;;7.30;95889.80;;;;111050;1248;42024;-59
2022/02/07 13:35:13;;;;;;;8.70;2.70;;;;;7.30;95883.60;;;;111087;1247;41614;-60
2022/02/07 13:37:43;;;;;;;6.80;2.50;;;;;7.20;95897.40;;;;111092;1248;41158;-60
2022/02/07 13:40:17;;;;;;;6.70;2.70;;;;;7.12;95890.20;;;;111003;1248;41193;-58
2022/02/07 13:42:49;;;;;;;9.10;3.00;;;;;7.10;95893.40;;;;111088;1246;41798;-60
2022/02/07 13:45:25;;;;;;;9.50;2.80;;;;;7.00;95895.00;;;;111040;1247;41173;-59
2022/02/07 13:47:57;;;;;;;7.70;3.10;;;;;7.00;95901.00;;;;111045;1248;41144;-59
2022/02/07 13:50:29;;;;;;;9.50;3.50;;;;;6.90;95907.00;;;;111059;1247;41203;-58
2022/02/07 13:53:02;;;;;;;10.10;3.50;;;;;6.90;95903.20;;;;111019;1248;41611;-59
2022/02/07 13:55:34;;;;;;;7.90;2.80;;;;;6.80;95899.60;;;;111046;1248;41153;-58
2022/02/07 13:58:06;;;;;;;8.70;3.70;;;;;6.82;95907.80;;;;111070;1248;41393;-59
2022/02/07 14:00:47;;;;;;;8.20;2.80;;;;;6.90;95912.40;;;;111023;1246;41176;-58
2022/02/07 14:03:19;;;;;;;8.30;3.10;;;;;6.80;95919.00;;;;110827;1248;41165;-59
2022/02/07 14:05:54;;;;;;;5.80;2.40;;;;;6.82;95914.20;;;;111021;1248;41263;-58
2022/02/07 14:08:51;;;;;;;10.00;4.80;;;;;6.80;95924.80;;;;111096;1248;41250;-58
2022/02/07 14:11:25;;;;;;;6.70;3.10;;;;;6.80;95931.80;;;;111086;1247;41775;-58
2022/02/07 14:14:01;;;;;;;8.90;3.20;;;;;6.86;95937.00;;;;111079;1248;41606;-58
2022/02/07 14:16:31;;;;;;;7.30;3.20;;;;;6.70;95937.60;;;;111135;1248;41803;-58
2022/02/07 14:19:00;;;;;;;7.20;3.00;;;;;6.80;95948.40;;;;110797;1250;41153;-60
2022/02/07 14:21:33;;;;;;;7.10;3.10;;;;;6.80;95954.60;;;;111040;1248;42804;-60
2022/02/07 14:24:03;;;;;;;8.40;3.60;;;;;6.74;95959.40;;;;110881;1249;42354;-59
2022/02/07 14:26:51;;;;;;;8.10;3.40;;;;;6.80;95964.00;;;;111034;1248;42374;-59
2022/02/07 14:29:20;;;;;;;8.30;3.80;;;;;6.80;95972.80;;;;111066;1248;41390;-58
2022/02/07 14:32:05;;;;;;;8.00;3.60;;;;;6.66;95972.80;;;;110950;1248;41340;-58
2022/02/07 14:34:35;;;;;;;8.10;3.50;;;;;6.60;95977.00;;;;110982;1248;41136;-59
2022/02/07 14:37:10;;;;;;;8.20;3.40;;;;;6.32;95980.20;;;;111043;1249;41264;-58
2022/02/07 14:39:40;;;;;;;9.90;3.50;;;;;6.28;95975.00;;;;111062;1248;42026;-59
2022/02/07 14:42:09;;;;;;;7.30;3.20;;;;;6.28;95981.80;;;;111050;1247;41153;-58
2022/02/07 14:44:46;;;;;;;7.00;2.70;;;;;6.20;95989.80;;;;111043;1248;41154;-57
2022/02/07 14:47:36;;;;;;;6.30;2.90;;;;;6.20;96001.20;;;;111112;1248;42422;-59
2022/02/07 14:50:06;;;;;;;6.20;2.60;;;;;6.20;96004.40;;;;111089;1248;41159;-59
2022/02/07 14:52:35;;;;;;;6.10;2.40;;;;;6.20;96005.60;;;;110859;1250;41601;-59
2022/02/07 14:55:06;;;;;;;6.20;2.70;;;;;6.20;96015.80;;;;110995;1247;41728;-60
2022/02/07 14:57:36;;;;;;;6.70;2.50;;;;;6.20;96020.40;;;;110843;1249;42382;-59
2022/02/07 15:00:09;;;;;;;6.40;2.60;;;;;6.16;96020.60;;;;110722;1249;41228;-58
2022/02/07 15:02:38;;;;;;;6.30;2.60;;;;;6.10;96025.60;;;;111060;1248;41499;-57
2022/02/07 15:05:08;;;;;;;7.40;2.80;;;;;5.90;96030.00;;;;111088;1248;41177;-59
2022/02/07 15:07:37;;;;;;;7.20;2.70;;;;;5.80;96043.00;;;;111020;1248;42338;-59
2022/02/07 15:10:08;;;;;;;7.50;2.70;;;;;5.82;96039.60;;;;111042;1247;41715;-59
2022/02/07 15:12:37;;;;;;;6.10;2.80;;;;;5.84;96044.20;;;;111097;1247;41312;-57